Forside
METAR-TAF:

METAR-TAF

Lufthavne :

Houston, Texas, USA

Breddekreds: 29-59-33N, længdekreds: 095-21-50W, højde: 29 m

Aktuelle vejr

Denne rapport blev lavet for 52 minutter siden, kl. 10:53 UTC
Vind 7 kt fra vestnordvest
Temperatur 0°C
Fugtighed 86%
Tryk 1032 hPa
Sigt: 16.1 km
Nogle få skyer i en højde af 25000 ft

METAR: KIAH 141053Z COR 30007KT 10SM FEW250 00/M02 A3048 RMK AO2 SLP322 T00001017

Tid: 05:45 (11:45 UTC)

Vejrudsigter

Denne rapport blev lavet for 25 minutter siden, kl. 11:20 UTC
Foreløbig gælder fra 14 på 12 UTC til 15 på 18 UTC
Vind 6 kt fra vestnordvest
Sigt: 10 km
Nogle få skyer i en højde af 25000 ft
Fra 14 på 1600 UTC
Vind 12 kt fra nordvest
Sigt: 10 km
skyfri
Fra 15 på 0000 UTC
Vind 4 kt fra nordvest
Sigt: 10 km
skyfri

TAF: KIAH 141120Z 1412/1518 30006KT P6SM FEW250 FM141600 32012KT P6SM SKC FM150000 31004KT P6SM SKC

Vejrobservationer og prognoser fra mere end 4000 lufthavne (METAR og TAF).

De gule og røde prikker repræsenterer de meteorologiske stationer.

Flyt musen over at se navnet på stationen.

Så klik over at se vejr observationer og prognoser.

At skifte det kort: Klik på de grønne knapper med et sort kors for at zoome ind; på den grønne knap med en bindestreg for at zoome ud; eller på de grønne pile for tilstødende kort.


METAR-TAF: